sensor_id;sensor_type;location;lat;lon;timestamp;temperature;humidity
21214;DHT22;10764;50.850;2.904;2023-05-07T00:02:14;23.10;51.30
21214;DHT22;10764;50.850;2.904;2023-05-07T00:04:42;23.10;51.30
21214;DHT22;10764;50.850;2.904;2023-05-07T00:07:08;23.00;51.30
21214;DHT22;10764;50.850;2.904;2023-05-07T00:09:36;23.00;51.30
21214;DHT22;10764;50.850;2.904;2023-05-07T00:12:02;23.00;51.30
21214;DHT22;10764;50.850;2.904;2023-05-07T00:14:29;23.00;51.30
21214;DHT22;10764;50.850;2.904;2023-05-07T00:16:56;23.00;51.40
21214;DHT22;10764;50.850;2.904;2023-05-07T00:19:23;23.00;51.40
21214;DHT22;10764;50.850;2.904;2023-05-07T00:24:20;23.00;51.40
21214;DHT22;10764;50.850;2.904;2023-05-07T00:26:47;23.00;51.50
21214;DHT22;10764;50.850;2.904;2023-05-07T00:29:14;23.00;51.50
21214;DHT22;10764;50.850;2.904;2023-05-07T00:31:41;23.00;51.50
21214;DHT22;10764;50.850;2.904;2023-05-07T00:34:08;23.00;51.60
21214;DHT22;10764;50.850;2.904;2023-05-07T00:39:02;23.00;51.60
21214;DHT22;10764;50.850;2.904;2023-05-07T00:41:30;23.00;51.70
21214;DHT22;10764;50.850;2.904;2023-05-07T00:43:57;23.00;51.70
21214;DHT22;10764;50.850;2.904;2023-05-07T00:46:24;23.00;51.70
21214;DHT22;10764;50.850;2.904;2023-05-07T00:48:53;23.00;51.90
21214;DHT22;10764;50.850;2.904;2023-05-07T00:51:20;23.00;51.70
21214;DHT22;10764;50.850;2.904;2023-05-07T00:53:47;23.00;51.80
21214;DHT22;10764;50.850;2.904;2023-05-07T00:56:14;23.00;51.80
21214;DHT22;10764;50.850;2.904;2023-05-07T00:58:42;23.00;51.80
21214;DHT22;10764;50.850;2.904;2023-05-07T01:01:09;23.00;51.80
21214;DHT22;10764;50.850;2.904;2023-05-07T01:03:36;23.00;51.80
21214;DHT22;10764;50.850;2.904;2023-05-07T01:06:05;23.00;51.80
21214;DHT22;10764;50.850;2.904;2023-05-07T01:08:33;23.00;51.80
21214;DHT22;10764;50.850;2.904;2023-05-07T01:11:02;23.00;51.80
21214;DHT22;10764;50.850;2.904;2023-05-07T01:15:57;23.00;51.90
21214;DHT22;10764;50.850;2.904;2023-05-07T01:18:24;23.00;51.90
21214;DHT22;10764;50.850;2.904;2023-05-07T01:20:52;23.00;51.90
21214;DHT22;10764;50.850;2.904;2023-05-07T01:23:21;23.00;51.90
21214;DHT22;10764;50.850;2.904;2023-05-07T01:25:53;23.00;51.90
21214;DHT22;10764;50.850;2.904;2023-05-07T01:28:22;23.00;51.90
21214;DHT22;10764;50.850;2.904;2023-05-07T01:30:54;23.00;51.90
21214;DHT22;10764;50.850;2.904;2023-05-07T01:33:23;23.00;51.90
21214;DHT22;10764;50.850;2.904;2023-05-07T01:35:53;23.00;51.90
21214;DHT22;10764;50.850;2.904;2023-05-07T01:38:22;23.00;51.90
21214;DHT22;10764;50.850;2.904;2023-05-07T01:40:50;23.00;52.00
21214;DHT22;10764;50.850;2.904;2023-05-07T01:43:19;23.00;52.00
21214;DHT22;10764;50.850;2.904;2023-05-07T01:45:47;23.00;52.00
21214;DHT22;10764;50.850;2.904;2023-05-07T01:48:15;23.00;52.00
21214;DHT22;10764;50.850;2.904;2023-05-07T01:50:43;23.00;52.00
21214;DHT22;10764;50.850;2.904;2023-05-07T01:53:11;23.00;52.00
21214;DHT22;10764;50.850;2.904;2023-05-07T01:55:38;23.00;52.00
21214;DHT22;10764;50.850;2.904;2023-05-07T01:58:05;23.00;52.00
21214;DHT22;10764;50.850;2.904;2023-05-07T02:00:32;23.10;52.10
21214;DHT22;10764;50.850;2.904;2023-05-07T02:02:59;23.10;52.10
21214;DHT22;10764;50.850;2.904;2023-05-07T02:05:37;23.00;52.10
21214;DHT22;10764;50.850;2.904;2023-05-07T02:08:18;23.00;52.10
21214;DHT22;10764;50.850;2.904;2023-05-07T02:10:45;23.00;52.10
21214;DHT22;10764;50.850;2.904;2023-05-07T02:13:12;23.00;52.10
21214;DHT22;10764;50.850;2.904;2023-05-07T02:15:39;23.00;52.10
21214;DHT22;10764;50.850;2.904;2023-05-07T02:18:08;23.00;52.10
21214;DHT22;10764;50.850;2.904;2023-05-07T02:20:35;23.10;52.10
21214;DHT22;10764;50.850;2.904;2023-05-07T02:23:03;23.00;52.10
21214;DHT22;10764;50.850;2.904;2023-05-07T02:25:30;23.00;52.20
21214;DHT22;10764;50.850;2.904;2023-05-07T02:27:57;23.00;52.20
21214;DHT22;10764;50.850;2.904;2023-05-07T02:30:36;23.00;52.20
21214;DHT22;10764;50.850;2.904;2023-05-07T02:33:03;23.00;53.20
21214;DHT22;10764;50.850;2.904;2023-05-07T02:35:31;23.00;52.20
21214;DHT22;10764;50.850;2.904;2023-05-07T02:37:57;23.00;52.20
21214;DHT22;10764;50.850;2.904;2023-05-07T02:40:25;23.00;52.30
21214;DHT22;10764;50.850;2.904;2023-05-07T02:42:52;23.00;52.30
21214;DHT22;10764;50.850;2.904;2023-05-07T02:45:19;23.00;52.30
21214;DHT22;10764;50.850;2.904;2023-05-07T02:47:47;22.90;52.20
21214;DHT22;10764;50.850;2.904;2023-05-07T02:50:14;23.00;52.30
21214;DHT22;10764;50.850;2.904;2023-05-07T02:52:41;23.00;52.30
21214;DHT22;10764;50.850;2.904;2023-05-07T02:55:08;23.00;52.30
21214;DHT22;10764;50.850;2.904;2023-05-07T02:57:35;23.00;52.30
21214;DHT22;10764;50.850;2.904;2023-05-07T03:00:14;23.00;52.40
21214;DHT22;10764;50.850;2.904;2023-05-07T03:02:48;23.00;52.30
21214;DHT22;10764;50.850;2.904;2023-05-07T03:05:15;23.00;52.30
21214;DHT22;10764;50.850;2.904;2023-05-07T03:07:42;23.00;52.30
21214;DHT22;10764;50.850;2.904;2023-05-07T03:10:12;23.00;52.30
21214;DHT22;10764;50.850;2.904;2023-05-07T03:12:39;23.00;52.30
21214;DHT22;10764;50.850;2.904;2023-05-07T03:15:10;23.00;52.30
21214;DHT22;10764;50.850;2.904;2023-05-07T03:17:39;23.00;52.40
21214;DHT22;10764;50.850;2.904;2023-05-07T03:20:06;24.50;53.10
21214;DHT22;10764;50.850;2.904;2023-05-07T03:22:34;23.00;52.30
21214;DHT22;10764;50.850;2.904;2023-05-07T03:25:01;23.00;52.40
21214;DHT22;10764;50.850;2.904;2023-05-07T03:27:28;23.00;52.30
21214;DHT22;10764;50.850;2.904;2023-05-07T03:29:55;23.00;52.40
21214;DHT22;10764;50.850;2.904;2023-05-07T03:32:22;23.00;52.40
21214;DHT22;10764;50.850;2.904;2023-05-07T03:34:50;23.00;52.40
21214;DHT22;10764;50.850;2.904;2023-05-07T03:37:17;23.00;52.40
21214;DHT22;10764;50.850;2.904;2023-05-07T03:39:44;23.00;52.40
21214;DHT22;10764;50.850;2.904;2023-05-07T03:42:11;24.80;53.60
21214;DHT22;10764;50.850;2.904;2023-05-07T03:44:38;23.00;52.50
21214;DHT22;10764;50.850;2.904;2023-05-07T03:47:06;23.00;52.50
21214;DHT22;10764;50.850;2.904;2023-05-07T03:49:33;23.00;52.50
21214;DHT22;10764;50.850;2.904;2023-05-07T03:54:28;22.90;52.50
21214;DHT22;10764;50.850;2.904;2023-05-07T03:56:55;23.00;52.50
21214;DHT22;10764;50.850;2.904;2023-05-07T03:59:22;23.00;52.60
21214;DHT22;10764;50.850;2.904;2023-05-07T04:01:49;22.90;52.50
21214;DHT22;10764;50.850;2.904;2023-05-07T04:04:19;22.90;52.60
21214;DHT22;10764;50.850;2.904;2023-05-07T04:06:46;22.90;52.60
21214;DHT22;10764;50.850;2.904;2023-05-07T04:09:13;24.00;53.10
21214;DHT22;10764;50.850;2.904;2023-05-07T04:11:40;22.90;52.60
21214;DHT22;10764;50.850;2.904;2023-05-07T04:14:09;23.00;52.60
21214;DHT22;10764;50.850;2.904;2023-05-07T04:16:36;23.00;52.60
21214;DHT22;10764;50.850;2.904;2023-05-07T04:19:04;22.90;52.60
21214;DHT22;10764;50.850;2.904;2023-05-07T04:21:31;22.90;52.70
21214;DHT22;10764;50.850;2.904;2023-05-07T04:23:58;22.90;52.70
21214;DHT22;10764;50.850;2.904;2023-05-07T04:26:25;22.90;52.70
21214;DHT22;10764;50.850;2.904;2023-05-07T04:28:52;22.90;52.70
21214;DHT22;10764;50.850;2.904;2023-05-07T04:31:19;22.90;52.70
21214;DHT22;10764;50.850;2.904;2023-05-07T04:33:50;22.90;52.70
21214;DHT22;10764;50.850;2.904;2023-05-07T04:36:18;23.00;52.80
21214;DHT22;10764;50.850;2.904;2023-05-07T04:38:52;23.00;52.70
21214;DHT22;10764;50.850;2.904;2023-05-07T04:41:19;23.00;52.60
21214;DHT22;10764;50.850;2.904;2023-05-07T04:43:47;23.00;52.60
21214;DHT22;10764;50.850;2.904;2023-05-07T04:46:16;23.00;52.60
21214;DHT22;10764;50.850;2.904;2023-05-07T04:48:44;23.00;52.60
21214;DHT22;10764;50.850;2.904;2023-05-07T04:51:11;23.00;52.60
21214;DHT22;10764;50.850;2.904;2023-05-07T04:53:38;23.00;52.70
21214;DHT22;10764;50.850;2.904;2023-05-07T04:56:05;23.00;52.60
21214;DHT22;10764;50.850;2.904;2023-05-07T04:58:39;23.00;52.70
21214;DHT22;10764;50.850;2.904;2023-05-07T05:01:06;23.00;52.70
21214;DHT22;10764;50.850;2.904;2023-05-07T05:03:33;23.00;52.70
21214;DHT22;10764;50.850;2.904;2023-05-07T05:06:01;23.00;52.80
21214;DHT22;10764;50.850;2.904;2023-05-07T05:08:31;23.00;52.80
21214;DHT22;10764;50.850;2.904;2023-05-07T05:11:01;23.00;52.80
21214;DHT22;10764;50.850;2.904;2023-05-07T05:13:30;23.00;52.80
21214;DHT22;10764;50.850;2.904;2023-05-07T05:15:58;23.00;52.80
21214;DHT22;10764;50.850;2.904;2023-05-07T05:18:26;23.00;52.80
21214;DHT22;10764;50.850;2.904;2023-05-07T05:20:53;23.00;52.90
21214;DHT22;10764;50.850;2.904;2023-05-07T05:23:20;23.00;52.90
21214;DHT22;10764;50.850;2.904;2023-05-07T05:25:47;23.00;52.90
21214;DHT22;10764;50.850;2.904;2023-05-07T05:28:15;23.00;52.90
21214;DHT22;10764;50.850;2.904;2023-05-07T05:30:41;23.10;53.00
21214;DHT22;10764;50.850;2.904;2023-05-07T05:33:08;23.00;53.00
21214;DHT22;10764;50.850;2.904;2023-05-07T05:35:36;23.00;53.00
21214;DHT22;10764;50.850;2.904;2023-05-07T05:38:05;22.90;53.00
21214;DHT22;10764;50.850;2.904;2023-05-07T05:40:33;23.00;53.10
21214;DHT22;10764;50.850;2.904;2023-05-07T05:43:00;23.00;53.20
21214;DHT22;10764;50.850;2.904;2023-05-07T05:45:27;22.90;53.10
21214;DHT22;10764;50.850;2.904;2023-05-07T05:47:56;23.00;53.20
21214;DHT22;10764;50.850;2.904;2023-05-07T05:50:23;23.00;53.20
21214;DHT22;10764;50.850;2.904;2023-05-07T05:52:51;23.00;53.10
21214;DHT22;10764;50.850;2.904;2023-05-07T05:55:19;23.00;53.30
21214;DHT22;10764;50.850;2.904;2023-05-07T06:00:15;23.00;53.50
21214;DHT22;10764;50.850;2.904;2023-05-07T06:02:45;23.00;54.30
21214;DHT22;10764;50.850;2.904;2023-05-07T06:05:18;23.00;54.10
21214;DHT22;10764;50.850;2.904;2023-05-07T06:07:47;23.00;54.00
21214;DHT22;10764;50.850;2.904;2023-05-07T06:10:15;22.90;53.10
21214;DHT22;10764;50.850;2.904;2023-05-07T06:12:42;23.00;53.80
21214;DHT22;10764;50.850;2.904;2023-05-07T06:15:09;23.00;53.80
21214;DHT22;10764;50.850;2.904;2023-05-07T06:17:37;23.00;52.90
21214;DHT22;10764;50.850;2.904;2023-05-07T06:20:05;23.00;54.30
21214;DHT22;10764;50.850;2.904;2023-05-07T06:22:32;23.00;53.60
21214;DHT22;10764;50.850;2.904;2023-05-07T06:25:00;23.00;53.90
21214;DHT22;10764;50.850;2.904;2023-05-07T06:27:27;23.00;53.60
21214;DHT22;10764;50.850;2.904;2023-05-07T06:29:55;23.00;53.60
21214;DHT22;10764;50.850;2.904;2023-05-07T06:32:22;23.00;53.80
21214;DHT22;10764;50.850;2.904;2023-05-07T06:34:50;23.00;53.80
21214;DHT22;10764;50.850;2.904;2023-05-07T06:37:18;23.00;53.80
21214;DHT22;10764;50.850;2.904;2023-05-07T06:39:58;23.00;53.60
21214;DHT22;10764;50.850;2.904;2023-05-07T06:42:27;23.00;53.60
21214;DHT22;10764;50.850;2.904;2023-05-07T06:44:58;23.00;53.50
21214;DHT22;10764;50.850;2.904;2023-05-07T06:47:26;23.00;53.70
21214;DHT22;10764;50.850;2.904;2023-05-07T06:49:54;23.10;53.70
21214;DHT22;10764;50.850;2.904;2023-05-07T06:52:24;23.10;54.00
21214;DHT22;10764;50.850;2.904;2023-05-07T06:54:53;23.10;54.40
21214;DHT22;10764;50.850;2.904;2023-05-07T06:57:22;23.10;55.40
21214;DHT22;10764;50.850;2.904;2023-05-07T06:59:49;23.10;55.80
21214;DHT22;10764;50.850;2.904;2023-05-07T07:02:16;23.10;55.60
21214;DHT22;10764;50.850;2.904;2023-05-07T07:04:47;23.10;55.50
21214;DHT22;10764;50.850;2.904;2023-05-07T07:07:14;23.10;55.50
21214;DHT22;10764;50.850;2.904;2023-05-07T07:09:43;23.10;55.50
21214;DHT22;10764;50.850;2.904;2023-05-07T07:12:13;23.10;55.50
21214;DHT22;10764;50.850;2.904;2023-05-07T07:14:41;23.10;54.50
21214;DHT22;10764;50.850;2.904;2023-05-07T07:17:08;23.10;54.40
21214;DHT22;10764;50.850;2.904;2023-05-07T07:19:35;23.10;54.30
21214;DHT22;10764;50.850;2.904;2023-05-07T07:22:03;23.10;54.20
21214;DHT22;10764;50.850;2.904;2023-05-07T07:24:31;23.10;54.10
21214;DHT22;10764;50.850;2.904;2023-05-07T07:27:02;23.10;54.20
21214;DHT22;10764;50.850;2.904;2023-05-07T07:29:32;23.20;54.10
21214;DHT22;10764;50.850;2.904;2023-05-07T07:31:59;24.50;54.70
21214;DHT22;10764;50.850;2.904;2023-05-07T07:34:27;23.10;53.90
21214;DHT22;10764;50.850;2.904;2023-05-07T07:36:53;23.20;53.90
21214;DHT22;10764;50.850;2.904;2023-05-07T07:39:20;23.20;53.80
21214;DHT22;10764;50.850;2.904;2023-05-07T07:41:50;23.20;53.70
21214;DHT22;10764;50.850;2.904;2023-05-07T07:44:18;23.20;53.70
21214;DHT22;10764;50.850;2.904;2023-05-07T07:46:50;23.20;53.70
21214;DHT22;10764;50.850;2.904;2023-05-07T07:49:19;23.20;53.70
21214;DHT22;10764;50.850;2.904;2023-05-07T07:51:46;23.20;53.60
21214;DHT22;10764;50.850;2.904;2023-05-07T07:54:13;23.20;53.60
21214;DHT22;10764;50.850;2.904;2023-05-07T07:56:41;23.20;53.60
21214;DHT22;10764;50.850;2.904;2023-05-07T07:59:09;23.30;53.70
21214;DHT22;10764;50.850;2.904;2023-05-07T08:01:39;23.20;53.60
21214;DHT22;10764;50.850;2.904;2023-05-07T08:04:06;23.30;54.30
21214;DHT22;10764;50.850;2.904;2023-05-07T08:06:37;23.20;54.20
21214;DHT22;10764;50.850;2.904;2023-05-07T08:09:05;23.30;54.30
21214;DHT22;10764;50.850;2.904;2023-05-07T08:11:32;23.30;54.30
21214;DHT22;10764;50.850;2.904;2023-05-07T08:13:59;23.30;54.30
21214;DHT22;10764;50.850;2.904;2023-05-07T08:16:26;23.30;54.30
21214;DHT22;10764;50.850;2.904;2023-05-07T08:18:57;23.30;54.40
21214;DHT22;10764;50.850;2.904;2023-05-07T08:21:24;23.30;54.40
21214;DHT22;10764;50.850;2.904;2023-05-07T08:23:52;23.40;54.30
21214;DHT22;10764;50.850;2.904;2023-05-07T08:26:19;23.30;54.40
21214;DHT22;10764;50.850;2.904;2023-05-07T08:28:47;23.30;54.40
21214;DHT22;10764;50.850;2.904;2023-05-07T08:31:14;23.40;54.50
21214;DHT22;10764;50.850;2.904;2023-05-07T08:33:43;23.40;54.50
21214;DHT22;10764;50.850;2.904;2023-05-07T08:36:10;23.40;54.60
21214;DHT22;10764;50.850;2.904;2023-05-07T08:38:37;23.40;54.60
21214;DHT22;10764;50.850;2.904;2023-05-07T08:41:04;23.40;54.60
21214;DHT22;10764;50.850;2.904;2023-05-07T08:43:36;23.40;54.70
21214;DHT22;10764;50.850;2.904;2023-05-07T08:46:05;23.30;54.70
21214;DHT22;10764;50.850;2.904;2023-05-07T08:48:38;23.30;54.90
21214;DHT22;10764;50.850;2.904;2023-05-07T08:51:16;23.30;54.80
21214;DHT22;10764;50.850;2.904;2023-05-07T08:53:45;23.30;54.70
21214;DHT22;10764;50.850;2.904;2023-05-07T08:56:17;23.30;54.70
21214;DHT22;10764;50.850;2.904;2023-05-07T08:58:48;23.40;55.20
21214;DHT22;10764;50.850;2.904;2023-05-07T09:01:16;23.40;54.80
21214;DHT22;10764;50.850;2.904;2023-05-07T09:03:47;23.40;54.70
21214;DHT22;10764;50.850;2.904;2023-05-07T09:06:15;23.40;54.80
21214;DHT22;10764;50.850;2.904;2023-05-07T09:08:52;23.40;55.50
21214;DHT22;10764;50.850;2.904;2023-05-07T09:11:23;26.10;56.30
21214;DHT22;10764;50.850;2.904;2023-05-07T09:13:55;23.40;54.80
21214;DHT22;10764;50.850;2.904;2023-05-07T09:16:25;23.40;54.80
21214;DHT22;10764;50.850;2.904;2023-05-07T09:18:54;23.40;54.80
21214;DHT22;10764;50.850;2.904;2023-05-07T09:21:22;23.40;54.90
21214;DHT22;10764;50.850;2.904;2023-05-07T09:23:52;23.40;54.90
21214;DHT22;10764;50.850;2.904;2023-05-07T09:26:23;23.40;54.90
21214;DHT22;10764;50.850;2.904;2023-05-07T09:28:51;23.40;54.90
21214;DHT22;10764;50.850;2.904;2023-05-07T09:31:19;23.40;55.10
21214;DHT22;10764;50.850;2.904;2023-05-07T09:33:48;23.30;55.10
21214;DHT22;10764;50.850;2.904;2023-05-07T09:36:15;23.30;55.00
21214;DHT22;10764;50.850;2.904;2023-05-07T09:38:43;23.30;55.00
21214;DHT22;10764;50.850;2.904;2023-05-07T09:41:12;23.30;55.00
21214;DHT22;10764;50.850;2.904;2023-05-07T09:43:54;23.30;55.10
21214;DHT22;10764;50.850;2.904;2023-05-07T09:46:28;23.30;55.10
21214;DHT22;10764;50.850;2.904;2023-05-07T09:48:58;23.30;55.10
21214;DHT22;10764;50.850;2.904;2023-05-07T09:51:32;23.30;55.20
21214;DHT22;10764;50.850;2.904;2023-05-07T09:54:01;23.30;55.20
21214;DHT22;10764;50.850;2.904;2023-05-07T09:56:32;23.30;55.20
21214;DHT22;10764;50.850;2.904;2023-05-07T09:59:00;23.30;55.20
21214;DHT22;10764;50.850;2.904;2023-05-07T10:01:31;23.30;55.20
21214;DHT22;10764;50.850;2.904;2023-05-07T10:04:02;23.30;55.20
21214;DHT22;10764;50.850;2.904;2023-05-07T10:06:31;23.30;55.20
21214;DHT22;10764;50.850;2.904;2023-05-07T10:08:59;23.30;55.30
21214;DHT22;10764;50.850;2.904;2023-05-07T10:11:26;23.30;55.40
21214;DHT22;10764;50.850;2.904;2023-05-07T10:13:54;23.30;55.30
21214;DHT22;10764;50.850;2.904;2023-05-07T10:16:21;23.30;55.50
21214;DHT22;10764;50.850;2.904;2023-05-07T10:18:49;23.30;55.40
21214;DHT22;10764;50.850;2.904;2023-05-07T10:21:23;23.30;55.40
21214;DHT22;10764;50.850;2.904;2023-05-07T10:26:36;23.30;55.50
21214;DHT22;10764;50.850;2.904;2023-05-07T10:31:59;23.30;55.50
21214;DHT22;10764;50.850;2.904;2023-05-07T10:34:39;23.30;56.30
21214;DHT22;10764;50.850;2.904;2023-05-07T10:37:07;23.20;55.70
21214;DHT22;10764;50.850;2.904;2023-05-07T10:39:34;23.20;55.70
21214;DHT22;10764;50.850;2.904;2023-05-07T10:42:10;23.30;55.70
21214;DHT22;10764;50.850;2.904;2023-05-07T10:44:40;23.30;55.70
21214;DHT22;10764;50.850;2.904;2023-05-07T10:47:15;23.30;55.70
21214;DHT22;10764;50.850;2.904;2023-05-07T10:52:24;23.30;55.90
21214;DHT22;10764;50.850;2.904;2023-05-07T10:55:19;23.30;55.80
21214;DHT22;10764;50.850;2.904;2023-05-07T11:01:07;23.30;55.80
21214;DHT22;10764;50.850;2.904;2023-05-07T11:04:14;23.30;55.90
21214;DHT22;10764;50.850;2.904;2023-05-07T11:15:15;23.30;56.00
21214;DHT22;10764;50.850;2.904;2023-05-07T11:17:58;23.30;55.90
21214;DHT22;10764;50.850;2.904;2023-05-07T11:20:48;23.30;56.00
21214;DHT22;10764;50.850;2.904;2023-05-07T11:26:22;23.30;56.20
21214;DHT22;10764;50.850;2.904;2023-05-07T11:28:49;23.30;56.20
21214;DHT22;10764;50.850;2.904;2023-05-07T11:31:23;23.30;56.30
21214;DHT22;10764;50.850;2.904;2023-05-07T11:33:52;23.40;56.20
21214;DHT22;10764;50.850;2.904;2023-05-07T11:36:22;23.40;56.10
21214;DHT22;10764;50.850;2.904;2023-05-07T11:38:51;23.40;56.10
21214;DHT22;10764;50.850;2.904;2023-05-07T11:41:18;23.40;56.20
21214;DHT22;10764;50.850;2.904;2023-05-07T11:43:57;23.40;56.20
21214;DHT22;10764;50.850;2.904;2023-05-07T11:46:25;23.40;56.20
21214;DHT22;10764;50.850;2.904;2023-05-07T11:48:52;23.40;56.10
21214;DHT22;10764;50.850;2.904;2023-05-07T11:51:20;23.40;56.10
21214;DHT22;10764;50.850;2.904;2023-05-07T11:53:47;23.40;56.80
21214;DHT22;10764;50.850;2.904;2023-05-07T11:56:16;23.40;56.20
21214;DHT22;10764;50.850;2.904;2023-05-07T11:58:45;23.40;56.20
21214;DHT22;10764;50.850;2.904;2023-05-07T12:01:13;23.40;56.20
21214;DHT22;10764;50.850;2.904;2023-05-07T12:03:41;23.40;56.30
21214;DHT22;10764;50.850;2.904;2023-05-07T12:06:16;23.50;56.20
21214;DHT22;10764;50.850;2.904;2023-05-07T12:08:44;23.50;56.10
21214;DHT22;10764;50.850;2.904;2023-05-07T12:11:23;23.50;56.00
21214;DHT22;10764;50.850;2.904;2023-05-07T12:13:50;23.50;55.90
21214;DHT22;10764;50.850;2.904;2023-05-07T12:16:18;23.50;56.00
21214;DHT22;10764;50.850;2.904;2023-05-07T12:18:46;23.60;55.90
21214;DHT22;10764;50.850;2.904;2023-05-07T12:21:13;23.60;55.90
21214;DHT22;10764;50.850;2.904;2023-05-07T12:23:40;23.60;56.00
21214;DHT22;10764;50.850;2.904;2023-05-07T12:26:08;23.60;55.90
21214;DHT22;10764;50.850;2.904;2023-05-07T12:28:38;23.60;56.10
21214;DHT22;10764;50.850;2.904;2023-05-07T12:31:07;23.60;56.60
21214;DHT22;10764;50.850;2.904;2023-05-07T12:33:34;23.60;56.00
21214;DHT22;10764;50.850;2.904;2023-05-07T12:36:08;23.60;55.90
21214;DHT22;10764;50.850;2.904;2023-05-07T12:38:39;23.60;55.90
21214;DHT22;10764;50.850;2.904;2023-05-07T12:41:09;23.60;55.80
21214;DHT22;10764;50.850;2.904;2023-05-07T12:43:36;23.70;55.80
21214;DHT22;10764;50.850;2.904;2023-05-07T12:46:06;23.70;55.80
21214;DHT22;10764;50.850;2.904;2023-05-07T12:48:33;23.70;55.70
21214;DHT22;10764;50.850;2.904;2023-05-07T12:51:00;23.70;55.80
21214;DHT22;10764;50.850;2.904;2023-05-07T12:53:29;23.70;55.80
21214;DHT22;10764;50.850;2.904;2023-05-07T12:55:58;23.70;55.80
21214;DHT22;10764;50.850;2.904;2023-05-07T12:58:32;23.70;55.70
21214;DHT22;10764;50.850;2.904;2023-05-07T13:01:05;23.70;55.70
21214;DHT22;10764;50.850;2.904;2023-05-07T13:03:33;23.70;56.30
21214;DHT22;10764;50.850;2.904;2023-05-07T13:06:05;23.70;55.80
21214;DHT22;10764;50.850;2.904;2023-05-07T13:08:34;23.70;55.80
21214;DHT22;10764;50.850;2.904;2023-05-07T13:11:02;23.80;56.60
21214;DHT22;10764;50.850;2.904;2023-05-07T13:13:31;21.20;54.50
21214;DHT22;10764;50.850;2.904;2023-05-07T13:15:59;23.80;55.80
21214;DHT22;10764;50.850;2.904;2023-05-07T13:18:29;23.80;55.80
21214;DHT22;10764;50.850;2.904;2023-05-07T13:20:56;23.80;55.70
21214;DHT22;10764;50.850;2.904;2023-05-07T13:23:23;23.80;55.10
21214;DHT22;10764;50.850;2.904;2023-05-07T13:25:51;23.80;55.80
21214;DHT22;10764;50.850;2.904;2023-05-07T13:28:20;23.80;55.80
21214;DHT22;10764;50.850;2.904;2023-05-07T13:30:48;23.70;55.90
21214;DHT22;10764;50.850;2.904;2023-05-07T13:33:15;23.80;55.90
21214;DHT22;10764;50.850;2.904;2023-05-07T13:35:42;23.70;55.90
21214;DHT22;10764;50.850;2.904;2023-05-07T13:38:09;23.60;55.20
21214;DHT22;10764;50.850;2.904;2023-05-07T13:40:36;23.70;56.20
21214;DHT22;10764;50.850;2.904;2023-05-07T13:43:05;23.70;56.80
21214;DHT22;10764;50.850;2.904;2023-05-07T13:45:32;23.70;56.70
21214;DHT22;10764;50.850;2.904;2023-05-07T13:48:00;23.70;55.50
21214;DHT22;10764;50.850;2.904;2023-05-07T13:50:27;23.70;56.20
21214;DHT22;10764;50.850;2.904;2023-05-07T13:52:55;23.70;56.40
21214;DHT22;10764;50.850;2.904;2023-05-07T13:55:23;23.70;56.40
21214;DHT22;10764;50.850;2.904;2023-05-07T13:57:58;23.70;56.20
21214;DHT22;10764;50.850;2.904;2023-05-07T14:00:26;23.80;55.90
21214;DHT22;10764;50.850;2.904;2023-05-07T14:02:54;23.70;55.90
21214;DHT22;10764;50.850;2.904;2023-05-07T14:05:22;23.80;55.90
21214;DHT22;10764;50.850;2.904;2023-05-07T14:07:53;23.80;55.90
21214;DHT22;10764;50.850;2.904;2023-05-07T14:10:20;23.90;56.00
21214;DHT22;10764;50.850;2.904;2023-05-07T14:12:47;23.80;55.90
21214;DHT22;10764;50.850;2.904;2023-05-07T14:15:14;23.80;56.40
21214;DHT22;10764;50.850;2.904;2023-05-07T14:17:43;23.90;55.90
21214;DHT22;10764;50.850;2.904;2023-05-07T14:20:11;23.90;56.00
21214;DHT22;10764;50.850;2.904;2023-05-07T14:22:39;23.80;56.10
21214;DHT22;10764;50.850;2.904;2023-05-07T14:25:06;23.80;56.20
21214;DHT22;10764;50.850;2.904;2023-05-07T14:27:33;23.70;56.20
21214;DHT22;10764;50.850;2.904;2023-05-07T14:30:00;23.70;56.40
21214;DHT22;10764;50.850;2.904;2023-05-07T14:32:27;23.70;56.50
21214;DHT22;10764;50.850;2.904;2023-05-07T14:34:54;23.60;56.60
21214;DHT22;10764;50.850;2.904;2023-05-07T14:37:21;23.60;56.40
21214;DHT22;10764;50.850;2.904;2023-05-07T14:39:48;23.60;56.80
21214;DHT22;10764;50.850;2.904;2023-05-07T14:42:17;23.60;57.20
21214;DHT22;10764;50.850;2.904;2023-05-07T14:44:45;23.60;56.50
21214;DHT22;10764;50.850;2.904;2023-05-07T14:47:13;23.70;56.50
21214;DHT22;10764;50.850;2.904;2023-05-07T14:49:42;23.70;56.40
21214;DHT22;10764;50.850;2.904;2023-05-07T14:52:09;23.70;56.20
21214;DHT22;10764;50.850;2.904;2023-05-07T14:54:37;23.70;56.40
21214;DHT22;10764;50.850;2.904;2023-05-07T14:57:06;23.70;56.10
21214;DHT22;10764;50.850;2.904;2023-05-07T14:59:33;23.70;56.00
21214;DHT22;10764;50.850;2.904;2023-05-07T15:02:00;23.70;55.90
21214;DHT22;10764;50.850;2.904;2023-05-07T15:04:31;23.70;55.80
21214;DHT22;10764;50.850;2.904;2023-05-07T15:06:59;23.70;55.80
21214;DHT22;10764;50.850;2.904;2023-05-07T15:09:26;23.70;55.00
21214;DHT22;10764;50.850;2.904;2023-05-07T15:11:53;23.80;55.80
21214;DHT22;10764;50.850;2.904;2023-05-07T15:14:20;23.80;56.10
21214;DHT22;10764;50.850;2.904;2023-05-07T15:16:48;23.80;55.70
21214;DHT22;10764;50.850;2.904;2023-05-07T15:19:16;23.80;55.80
21214;DHT22;10764;50.850;2.904;2023-05-07T15:21:43;23.80;54.80
21214;DHT22;10764;50.850;2.904;2023-05-07T15:24:10;23.80;54.90
21214;DHT22;10764;50.850;2.904;2023-05-07T15:26:39;23.80;54.80
21214;DHT22;10764;50.850;2.904;2023-05-07T15:29:06;23.80;56.10
21214;DHT22;10764;50.850;2.904;2023-05-07T15:31:37;23.80;56.00
21214;DHT22;10764;50.850;2.904;2023-05-07T15:34:05;23.80;56.00
21214;DHT22;10764;50.850;2.904;2023-05-07T15:36:32;23.90;56.70
21214;DHT22;10764;50.850;2.904;2023-05-07T15:38:59;23.80;55.90
21214;DHT22;10764;50.850;2.904;2023-05-07T15:41:26;23.80;55.10
21214;DHT22;10764;50.850;2.904;2023-05-07T15:43:53;23.90;56.00
21214;DHT22;10764;50.850;2.904;2023-05-07T15:46:22;23.90;55.20
21214;DHT22;10764;50.850;2.904;2023-05-07T15:48:52;23.90;56.00
21214;DHT22;10764;50.850;2.904;2023-05-07T15:51:19;23.90;56.30
21214;DHT22;10764;50.850;2.904;2023-05-07T15:53:47;19.90;53.50
21214;DHT22;10764;50.850;2.904;2023-05-07T15:56:14;23.90;56.70
21214;DHT22;10764;50.850;2.904;2023-05-07T15:58:41;23.80;55.50
21214;DHT22;10764;50.850;2.904;2023-05-07T16:01:08;23.80;55.70
21214;DHT22;10764;50.850;2.904;2023-05-07T16:03:35;23.80;56.80
21214;DHT22;10764;50.850;2.904;2023-05-07T16:06:02;23.70;55.70
21214;DHT22;10764;50.850;2.904;2023-05-07T16:08:29;23.70;55.80
21214;DHT22;10764;50.850;2.904;2023-05-07T16:10:56;23.70;56.70
21214;DHT22;10764;50.850;2.904;2023-05-07T16:13:23;23.70;58.10
21214;DHT22;10764;50.850;2.904;2023-05-07T16:15:57;23.60;56.40